South Reno (Wolf Run), Nevada Weather observations

Data are for observation ending at time listed.
 Day   Time    Ave.   Ave.  Ave.  Vector   Max.   Stn.    Total    Solar   Ave.  
  of    of     Air    Rel.  Wind   Wind    Wind   Baro.  Precip.   Rad.    Soil  
Year   Day     Temp.  Hum.  Speed  Dir.    Gust   Pres.                    Temp. 
2014   (PST)    F      %     mph   deg.    mph     mb.     in.     W/m2     F   
------------------------------------------------------------------------------
 105   17:50   65.1    20    8.7   303     14.0  99999.0    0.00      88    58.1
 105   18:00   64.3    21    7.3   306     12.0  99999.0    0.00      55    58.1
 105   18:10   63.3    22    5.5   310     11.0  99999.0    0.00      32    58.1
 105   18:20   62.6    23    4.7   306     10.6  99999.0    0.00      19    58.1
 105   18:30   61.8    24    4.5   304      9.7  99999.0    0.00       9    58.1
 105   18:40   61.3    24    5.2   289     10.8  99999.0    0.00       2    58.0
 105   18:50   61.0    26    7.0   283     12.7  99999.0    0.00       0    58.0
 105   19:00   60.7    27    7.6   282     12.9  99999.0    0.00       0    58.0
 105   19:10   60.2    28    6.9   270     13.3  99999.0    0.00       0    57.9
 105   19:20   60.2    28    6.6   282     10.3  99999.0    0.00       0    57.8
 105   19:30   59.7    28    4.6   281      8.7  99999.0    0.00       0    57.8
 105   19:40   59.5    28    3.1    66      7.4  99999.0    0.00       0    57.7
 105   19:50   58.1    29    5.4   120      9.8  99999.0    0.00       0    57.7
 105   20:00   58.6    25    2.3   101      6.4  99999.0    0.00       0    57.6
 105   20:10   58.0    26    1.1   227      3.9  99999.0    0.00       0    57.5
 105   20:20   56.5    28    0.9   192      3.5  99999.0    0.00       0    57.4
 105   20:30   54.8    31    1.2   240      4.0  99999.0    0.00       0    57.4
 105   20:40   55.0    28    1.0   272      2.8  99999.0    0.00       0    57.3
 105   20:50   54.4    29    0.3   243      2.2  99999.0    0.00       0    57.2
 105   21:00   54.8    28    3.0   268      9.9  99999.0    0.00       0    57.1
 105   21:10   53.6    30    3.4   223      5.9  99999.0    0.00       0    57.0
 105   21:20   52.5    34    2.3   237      5.8  99999.0    0.00       0    56.9
 105   21:30   53.5    29    1.0   352      4.2  99999.0    0.00       0    56.9
 105   21:40   54.1    28    1.2   283      3.7  99999.0    0.00       0    56.8
 105   21:50   50.9    35    2.3   239      3.6  99999.0    0.00       0    56.7
 105   22:00   50.8    33    2.5   228      4.5  99999.0    0.00       0    56.6
 105   22:10   51.4    32    0.7   210      2.7  99999.0    0.00       0    56.5
 105   22:20   51.0    34    3.9   234      6.1  99999.0    0.00       0    56.4
 105   22:30   51.8    35    1.5   229      4.7  99999.0    0.00       0    56.3
 105   22:40   51.1    38    2.3   243      4.5  99999.0    0.00       0    56.2
 105   22:50   50.3    40    2.5   234      5.7  99999.0    0.00       0    56.1
 105   23:00   50.9    39    1.2   244      2.7  99999.0    0.00       0    56.0
 105   23:10   49.6    40    2.1   241      3.7  99999.0    0.00       0    55.9
 105   23:20   48.2    43    3.8   234      5.1  99999.0    0.00       0    55.8
 105   23:30   48.2    43    4.0   222      5.1  99999.0    0.00       0    55.7
 105   23:40   48.6    42    2.8   224      4.8  99999.0    0.00       0    55.7
 105   23:50   47.1    45    2.4   226      3.8  99999.0    0.00       0    55.6
 106    0:00   45.7    48    3.3   222      4.6  99999.0    0.00       0    55.5
 106    0:10   45.2    48    3.2   232      5.1  99999.0    0.00       0    55.4
 106    0:20   45.3    50    2.9   238      4.6  99999.0    0.00       0    55.3
 106    0:30   44.9    50    3.8   231      5.9  99999.0    0.00       0    55.3
 106    0:40   45.0    50    4.2   230      5.4  99999.0    0.00       0    55.2
 106    0:50   44.8    49    5.9   230      8.2  99999.0    0.00       0    55.1
 106    1:00   45.5    47    5.9   232      8.0  99999.0    0.00       0    55.0
 106    1:10   45.7    49    5.4   257     10.3  99999.0    0.00       0    55.0
 106    1:20   46.1    49    4.7   256      7.0  99999.0    0.00       0    54.9
 106    1:30   46.0    49    5.4   253      7.6  99999.0    0.00       0    54.8
 106    1:40   46.2    47    4.6   246      7.0  99999.0    0.00       0    54.7
 106    1:50   45.2    50    2.4   258      5.6  99999.0    0.00       0    54.6
 106    2:00   45.3    48    2.9   244      4.3  99999.0    0.00       0    54.6
 106    2:10   44.5    49    3.7   228      5.6  99999.0    0.00       0    54.5
 106    2:20   43.1    52    2.0   238      4.0  99999.0    0.00       0    54.4
 106    2:30   43.3    52    3.1   241      4.9  99999.0    0.00       0    54.3
 106    2:40   43.4    51    2.9   230      4.5  99999.0    0.00       0    54.2
 106    2:50   43.1    50    5.0   224      6.7  99999.0    0.00       0    54.2
 106    3:00   41.7    53    5.0   244      8.8  99999.0    0.00       0    54.1
 106    3:10   43.2    50    5.7   240      8.4  99999.0    0.00       0    54.0
 106    3:20   43.5    50    5.6   247      8.4  99999.0    0.00       0    53.9
 106    3:30   44.1    48    6.7   253     10.2  99999.0    0.00       0    53.9
 106    3:40   43.7    50    5.1   255      9.5  99999.0    0.00       0    53.8
 106    3:50   43.2    51    5.0   255      8.5  99999.0    0.00       0    53.7
 106    4:00   43.1    51    4.8   257      8.4  99999.0    0.00       0    53.6
 106    4:10   42.8    51    4.6   248      8.0  99999.0    0.00       0    53.6
 106    4:20   41.9    51    3.3   235      5.3  99999.0    0.00       0    53.5
 106    4:30   41.1    52    3.2   232      4.8  99999.0    0.00       0    53.4
 106    4:40   41.1    52    4.2   230      5.2  99999.0    0.00       0    53.3
 106    4:50   40.9    52    3.8   233      5.6  99999.0    0.00       0    53.3
 106    5:00   40.7    52    3.6   233      4.8  99999.0    0.00       0    53.2
 106    5:10   40.4    52    4.4   237      6.2  99999.0    0.00       1    53.1
 106    5:20   40.8    51    4.5   240      6.3  99999.0    0.00       4    53.0
 106    5:30   41.6    50    4.1   252      6.3  99999.0    0.00      11    53.0
 106    5:40   42.2    50    3.4   245      5.8  99999.0    0.00      24    52.9
 106    5:50   42.4    51    4.2   245      7.0  99999.0    0.00      37    52.8
 106    6:00   43.9    49    3.6   236      4.6  99999.0    0.00      85    52.8
 106    6:10   46.4    45    3.3   249      5.0  99999.0    0.00     132    52.7
 106    6:20   48.7    44    1.5   264      4.2  99999.0    0.00     164    52.6
 106    6:30   51.9    38    0.4    25      2.5  99999.0    0.00     193    52.6
 106    6:40   51.7    38    2.2    13      3.9  99999.0    0.00     231    52.5
 106    6:50   51.0    41    2.2     4      3.5  99999.0    0.00     267    52.4
 106    7:00   51.7    37    3.4    21      4.9  99999.0    0.00     302    52.4
 106    7:10   52.1    35    3.1     3      4.9  99999.0    0.00     336    52.3
 106    7:20   52.6    32    3.0   353      5.6  99999.0    0.00     371    52.2
 106    7:30   53.1    31    4.1    13      6.5  99999.0    0.00     407    52.2
 106    7:40   53.4    31    3.2    36      5.6  99999.0    0.00     443    52.2
 106    7:50   53.7    31    4.6    27      9.1  99999.0    0.00     476    52.1
 106    8:00   53.3    32    4.4    16      9.5  99999.0    0.00     507    52.1
 106    8:10   54.4    29    4.5    18      9.4  99999.0    0.00     536    52.1
 106    8:20   54.6    28    5.0     9     10.9  99999.0    0.00     571    52.1
 106    8:30   55.1    28    4.3    10      7.5  99999.0    0.00     603    52.1
 106    8:40   55.9    27    5.4     8      9.4  99999.0    0.00     634    52.1
 106    8:50   55.9    26    4.0     2      9.4  99999.0    0.00     656    52.1
 106    9:00   56.4    27    3.4   347      8.7  99999.0    0.00     688    52.1
 106    9:10   57.2    26    3.6     3      7.2  99999.0    0.00     699    52.2
 106    9:20   57.3    26    4.2   332      8.0  99999.0    0.00     731    52.2
 106    9:30   57.7    25    3.8    16      7.6  99999.0    0.00     768    52.2
 106    9:40   58.1    23    4.3    22      7.8  99999.0    0.00     761    52.3
 106    9:50   58.9    24    4.4    16      8.3  99999.0    0.00     809    52.4
 106   10:00   58.8    25    3.2   338      8.0  99999.0    0.00     813    52.5
 106   10:10   60.3    25    2.6   331      8.2  99999.0    0.00     838    52.6
 106   10:20   61.4    24    3.1    24      7.5  99999.0    0.00     837    52.7
 106   10:30   61.1    23    4.0    34      6.7  99999.0    0.00     857    52.8
 106   10:40   61.1    22    4.3    15     10.4  99999.0    0.00     909    52.9
 106   10:50   61.3    24    3.2   323      8.6  99999.0    0.00     892    53.0
 106   11:00   63.3    23    3.1   353      9.7  99999.0    0.00     921    53.2
 106   11:10   63.3    22    3.7    13      8.1  99999.0    0.00     921    53.3
 106   11:20   63.2    22    6.4    30     12.4  99999.0    0.00     948    53.5
 106   11:30   62.2    24    3.8    88      8.1  99999.0    0.00     950    53.7
 106   11:40   63.3    24    4.7   314     12.4  99999.0    0.00     955    53.9
 106   11:50   63.7    22    4.6     2      9.5  99999.0    0.00     955    54.0
 106   12:00   63.7    22    5.2    21     12.9  99999.0    0.00     960    54.2
 106   12:10   64.3    23    3.2   328      9.3  99999.0    0.00     961    54.4
 106   12:20   65.0    22    5.6   351     14.6  99999.0    0.00     956    54.6
 106   12:30   65.6    21    5.6   357     12.5  99999.0    0.00     951    54.9
 106   12:40   66.3    20    3.4     8     11.5  99999.0    0.00     940    55.1
 106   12:50   66.1    20    8.2    58     14.1  99999.0    0.00     937    55.3
 106   13:00   66.7    20    4.0    12      8.8  99999.0    0.00     926    55.5
 106   13:10   67.4    19    6.3    39     14.9  99999.0    0.00     902    55.7
 106   13:20   65.8    20    6.3    80     12.5  99999.0    0.00     896    56.0
 106   13:30   67.0    19    7.2    32     14.4  99999.0    0.00     880    56.2
 106   13:40   67.9    20    3.0   332      6.5  99999.0    0.00     879    56.4
 106   13:50   67.6    20    4.3   107      8.3  99999.0    0.00     869    56.6
 106   14:00   68.5    20    2.7   332      7.3  99999.0    0.00     768    56.8
 106   14:10   69.3    18    3.4     7      9.0  99999.0    0.00     746    57.1
 106   14:20   68.4    18    4.5    72     12.1  99999.0    0.00     796    57.3
 106   14:30   69.3    18    4.3    40      9.5  99999.0    0.00     699    57.5
 106   14:40   68.2    19    3.6    44     10.2  99999.0    0.00     598    57.7
 106   14:50   68.9    18    4.7    22     12.5  99999.0    0.00     693    57.8
 106   15:00   69.6    18    4.0    32      9.8  99999.0    0.00     699    58.0
 106   15:10   69.1    18    8.1    32     14.3  99999.0    0.00     690    58.2
 106   15:20   70.4    17    5.1    18     10.1  99999.0    0.00     658    58.4
 106   15:30   69.6    18    5.1    55     10.7  99999.0    0.00     606    58.5
 106   15:40   69.3    17    3.4    60      7.4  99999.0    0.00     370    58.7
 106   15:50   67.9    18    5.0    26      9.7  99999.0    0.00     384    58.8
 106   16:00   69.5    17    3.7    35      7.8  99999.0    0.00     599    58.9
 106   16:10   69.7    17    5.8    47     10.1  99999.0    0.00     556    59.1
 106   16:20   69.6    18    4.1   345      9.4  99999.0    0.00     417    59.1
 106   16:30   69.8    17    2.9    10      9.2  99999.0    0.00     404    59.2
 106   16:40   69.2    17    5.1   349      9.5  99999.0    0.00     390    59.3
 106   16:50   69.9    18    3.6   332      7.6  99999.0    0.00     306    59.4
 106   17:00   67.8    18    5.1     0      8.7  99999.0    0.00     147    59.5
 106   17:10   67.0    19    4.7   336      9.2  99999.0    0.00     119    59.5
 106   17:20   66.7    19    6.1   347     10.8  99999.0    0.00     115    59.5
 106   17:30   67.1    19    6.3     8     11.0  99999.0    0.00     147    59.6
 106   17:40   66.5    19    8.2   353     11.8  99999.0    0.00     106    59.6

Return to South Reno, Nevada graphs page.


Western Regional Climate Center,wrcc@dri.edu